Izium, Ukraine
Current Conditions -  °F | °C
As of 3:00 PM on Sunday 21 Dec 2014 (Local Time) from UKHH Reporting Station
Overcast Overcast  
Wind Chill: 30°   Ceiling: 10000
Heat Index: 36°   Visibility: 6mi
Dew Point: 32°   Wind: 7mph
Humidity: 87%   Direction: 220°SW
Pressure: 29.8"   Gusts: NA
Location:  49.18°N, 37.3°E
Report Text: UKHH 211200Z 22003MPS 9999 SCT040 OVC100 02/00 Q1009 25290063 NOSIG
Loading
Personal Weather Stations






























Interactive Weather Map New forecast layout! Learn more

10-Day Weather Forecast

Advertisements
Track Severe Weather on mobile